sensor_id;sensor_type;location;lat;lon;timestamp;pressure;altitude;pressure_sealevel;temperature;humidity
32330;BME280;18807;52.434;13.238;2023-02-11T00:05:05;102547.59;;;2.56;100.00
32330;BME280;18807;52.434;13.238;2023-02-11T00:12:40;102542.44;;;2.57;100.00
32330;BME280;18807;52.434;13.238;2023-02-11T00:20:15;102547.59;;;2.56;100.00
32330;BME280;18807;52.434;13.238;2023-02-11T00:27:50;102563.41;;;2.56;100.00
32330;BME280;18807;52.434;13.238;2023-02-11T00:35:24;102528.53;;;2.60;100.00
32330;BME280;18807;52.434;13.238;2023-02-11T00:42:59;102511.34;;;2.65;100.00
32330;BME280;18807;52.434;13.238;2023-02-11T00:50:33;102528.78;;;2.74;100.00
32330;BME280;18807;52.434;13.238;2023-02-11T00:58:08;102551.47;;;2.84;100.00
32330;BME280;18807;52.434;13.238;2023-02-11T01:05:42;102530.22;;;2.94;100.00
32330;BME280;18807;52.434;13.238;2023-02-11T01:13:17;102522.09;;;3.02;100.00
32330;BME280;18807;52.434;13.238;2023-02-11T01:20:52;102504.41;;;3.13;100.00
32330;BME280;18807;52.434;13.238;2023-02-11T01:28:28;102484.06;;;3.23;100.00
32330;BME280;18807;52.434;13.238;2023-02-11T01:36:04;102480.69;;;3.26;100.00
32330;BME280;18807;52.434;13.238;2023-02-11T01:43:41;102468.03;;;3.33;100.00
32330;BME280;18807;52.434;13.238;2023-02-11T01:51:17;102457.22;;;3.42;100.00
32330;BME280;18807;52.434;13.238;2023-02-11T01:58:58;102444.94;;;3.42;100.00
32330;BME280;18807;52.434;13.238;2023-02-11T02:06:39;102441.69;;;3.46;100.00
32330;BME280;18807;52.434;13.238;2023-02-11T02:14:18;102420.47;;;3.58;100.00
32330;BME280;18807;52.434;13.238;2023-02-11T02:22:24;102405.78;;;3.61;100.00
32330;BME280;18807;52.434;13.238;2023-02-11T02:30:38;102406.91;;;3.65;100.00
32330;BME280;18807;52.434;13.238;2023-02-11T02:38:24;102403.88;;;3.72;100.00
32330;BME280;18807;52.434;13.238;2023-02-11T02:46:10;102423.09;;;3.82;100.00
32330;BME280;18807;52.434;13.238;2023-02-11T02:53:57;102386.19;;;3.84;100.00
32330;BME280;18807;52.434;13.238;2023-02-11T03:01:41;102375.22;;;3.91;100.00
32330;BME280;18807;52.434;13.238;2023-02-11T03:09:24;102373.81;;;3.96;100.00
32330;BME280;18807;52.434;13.238;2023-02-11T03:17:03;102359.25;;;4.02;100.00
32330;BME280;18807;52.434;13.238;2023-02-11T03:24:40;102356.81;;;4.05;100.00
32330;BME280;18807;52.434;13.238;2023-02-11T03:32:18;102366.47;;;4.05;100.00
32330;BME280;18807;52.434;13.238;2023-02-11T03:40:00;102372.16;;;4.11;100.00
32330;BME280;18807;52.434;13.238;2023-02-11T03:47:37;102368.63;;;4.10;100.00
32330;BME280;18807;52.434;13.238;2023-02-11T03:55:16;102363.84;;;4.18;100.00
32330;BME280;18807;52.434;13.238;2023-02-11T04:02:50;102371.34;;;4.25;100.00
32330;BME280;18807;52.434;13.238;2023-02-11T04:10:25;102361.81;;;4.27;100.00
32330;BME280;18807;52.434;13.238;2023-02-11T04:17:59;102348.69;;;4.29;100.00
32330;BME280;18807;52.434;13.238;2023-02-11T04:25:35;102366.38;;;4.30;100.00
32330;BME280;18807;52.434;13.238;2023-02-11T04:33:09;102371.13;;;4.35;100.00
32330;BME280;18807;52.434;13.238;2023-02-11T04:40:44;102355.78;;;4.30;100.00
32330;BME280;18807;52.434;13.238;2023-02-11T04:48:18;102355.16;;;4.34;100.00
32330;BME280;18807;52.434;13.238;2023-02-11T04:55:53;102341.25;;;4.36;100.00
32330;BME280;18807;52.434;13.238;2023-02-11T05:03:27;102338.59;;;4.36;100.00
32330;BME280;18807;52.434;13.238;2023-02-11T05:11:03;102325.47;;;4.38;100.00
32330;BME280;18807;52.434;13.238;2023-02-11T05:18:37;102312.16;;;4.36;100.00
32330;BME280;18807;52.434;13.238;2023-02-11T05:26:13;102299.13;;;4.39;100.00
32330;BME280;18807;52.434;13.238;2023-02-11T05:33:47;102290.47;;;4.42;100.00
32330;BME280;18807;52.434;13.238;2023-02-11T05:41:23;102278.22;;;4.44;100.00
32330;BME280;18807;52.434;13.238;2023-02-11T05:48:56;102272.34;;;4.48;100.00
32330;BME280;18807;52.434;13.238;2023-02-11T05:56:32;102266.00;;;4.46;100.00
32330;BME280;18807;52.434;13.238;2023-02-11T06:04:06;102258.81;;;4.43;100.00
32330;BME280;18807;52.434;13.238;2023-02-11T06:11:41;102269.06;;;4.52;100.00
32330;BME280;18807;52.434;13.238;2023-02-11T06:19:15;102278.19;;;4.57;100.00
32330;BME280;18807;52.434;13.238;2023-02-11T06:26:50;102287.72;;;4.68;100.00
32330;BME280;18807;52.434;13.238;2023-02-11T06:34:24;102281.72;;;4.70;100.00
32330;BME280;18807;52.434;13.238;2023-02-11T06:41:59;102272.94;;;4.71;100.00
32330;BME280;18807;52.434;13.238;2023-02-11T06:49:33;102266.13;;;4.75;100.00
32330;BME280;18807;52.434;13.238;2023-02-11T06:57:09;102265.84;;;4.70;100.00
32330;BME280;18807;52.434;13.238;2023-02-11T07:04:42;102275.50;;;4.70;100.00
32330;BME280;18807;52.434;13.238;2023-02-11T07:12:18;102273.78;;;4.70;100.00
32330;BME280;18807;52.434;13.238;2023-02-11T07:19:52;102266.72;;;4.71;100.00
32330;BME280;18807;52.434;13.238;2023-02-11T07:27:27;102257.06;;;4.71;100.00
32330;BME280;18807;52.434;13.238;2023-02-11T07:35:01;102247.75;;;4.78;100.00
32330;BME280;18807;52.434;13.238;2023-02-11T07:42:36;102241.31;;;4.87;100.00
32330;BME280;18807;52.434;13.238;2023-02-11T07:50:11;102251.72;;;4.99;100.00
32330;BME280;18807;52.434;13.238;2023-02-11T07:57:47;102254.22;;;5.10;100.00
32330;BME280;18807;52.434;13.238;2023-02-11T08:05:21;102251.22;;;5.19;100.00
32330;BME280;18807;52.434;13.238;2023-02-11T08:12:56;102242.53;;;5.21;100.00
32330;BME280;18807;52.434;13.238;2023-02-11T08:20:30;102257.53;;;5.35;100.00
32330;BME280;18807;52.434;13.238;2023-02-11T08:28:05;102295.16;;;5.44;100.00
32330;BME280;18807;52.434;13.238;2023-02-11T08:35:40;102291.75;;;5.61;100.00
32330;BME280;18807;52.434;13.238;2023-02-11T08:43:16;102285.53;;;5.61;100.00
32330;BME280;18807;52.434;13.238;2023-02-11T08:50:49;102301.00;;;5.68;100.00
32330;BME280;18807;52.434;13.238;2023-02-11T08:58:25;102279.22;;;5.73;100.00
32330;BME280;18807;52.434;13.238;2023-02-11T09:05:58;102262.66;;;5.77;100.00
32330;BME280;18807;52.434;13.238;2023-02-11T09:13:34;102262.84;;;5.80;100.00
32330;BME280;18807;52.434;13.238;2023-02-11T09:21:08;102280.72;;;5.83;100.00
32330;BME280;18807;52.434;13.238;2023-02-11T09:28:44;102298.63;;;5.87;100.00
32330;BME280;18807;52.434;13.238;2023-02-11T09:36:20;102293.84;;;5.96;100.00
32330;BME280;18807;52.434;13.238;2023-02-11T09:43:58;102288.81;;;6.00;100.00
32330;BME280;18807;52.434;13.238;2023-02-11T09:51:38;102293.72;;;6.09;100.00
32330;BME280;18807;52.434;13.238;2023-02-11T09:59:17;102319.69;;;6.14;100.00
32330;BME280;18807;52.434;13.238;2023-02-11T10:06:53;102333.88;;;6.15;100.00
32330;BME280;18807;52.434;13.238;2023-02-11T10:14:45;102331.75;;;6.24;100.00
32330;BME280;18807;52.434;13.238;2023-02-11T10:22:26;102331.84;;;6.26;100.00
32330;BME280;18807;52.434;13.238;2023-02-11T10:30:05;102330.00;;;6.25;100.00
32330;BME280;18807;52.434;13.238;2023-02-11T10:37:42;102326.34;;;6.23;100.00
32330;BME280;18807;52.434;13.238;2023-02-11T10:45:22;102331.47;;;6.20;100.00
32330;BME280;18807;52.434;13.238;2023-02-11T10:53:15;102327.91;;;6.19;100.00
32330;BME280;18807;52.434;13.238;2023-02-11T11:00:54;102330.75;;;6.22;100.00
32330;BME280;18807;52.434;13.238;2023-02-11T11:08:41;102304.38;;;6.25;100.00
32330;BME280;18807;52.434;13.238;2023-02-11T11:16:20;102298.97;;;6.24;100.00
32330;BME280;18807;52.434;13.238;2023-02-11T11:23:56;102304.28;;;6.24;100.00
32330;BME280;18807;52.434;13.238;2023-02-11T11:31:45;102298.16;;;6.25;100.00
32330;BME280;18807;52.434;13.238;2023-02-11T11:39:22;102302.06;;;6.31;100.00
32330;BME280;18807;52.434;13.238;2023-02-11T11:47:19;102315.44;;;6.33;100.00
32330;BME280;18807;52.434;13.238;2023-02-11T11:55:02;102303.00;;;6.32;100.00
32330;BME280;18807;52.434;13.238;2023-02-11T12:10:57;102302.69;;;6.42;100.00
32330;BME280;18807;52.434;13.238;2023-02-11T12:18:48;102303.94;;;6.48;100.00
32330;BME280;18807;52.434;13.238;2023-02-11T12:26:36;102287.09;;;6.48;100.00
32330;BME280;18807;52.434;13.238;2023-02-11T12:34:27;102292.84;;;6.55;100.00
32330;BME280;18807;52.434;13.238;2023-02-11T12:42:19;102291.13;;;6.72;100.00
32330;BME280;18807;52.434;13.238;2023-02-11T12:50:18;102278.91;;;6.75;100.00
32330;BME280;18807;52.434;13.238;2023-02-11T12:57:57;102283.56;;;6.79;100.00
32330;BME280;18807;52.434;13.238;2023-02-11T13:05:37;102288.53;;;6.89;100.00
32330;BME280;18807;52.434;13.238;2023-02-11T13:13:17;102286.47;;;7.00;100.00
32330;BME280;18807;52.434;13.238;2023-02-11T13:20:58;102298.72;;;6.98;100.00
32330;BME280;18807;52.434;13.238;2023-02-11T13:28:43;102302.06;;;6.94;100.00
32330;BME280;18807;52.434;13.238;2023-02-11T13:36:24;102324.97;;;6.92;100.00
32330;BME280;18807;52.434;13.238;2023-02-11T13:44:04;102324.00;;;6.90;100.00
32330;BME280;18807;52.434;13.238;2023-02-11T13:51:53;102333.69;;;6.89;100.00
32330;BME280;18807;52.434;13.238;2023-02-11T13:59:45;102340.09;;;6.93;100.00
32330;BME280;18807;52.434;13.238;2023-02-11T14:07:26;102340.72;;;6.89;100.00
32330;BME280;18807;52.434;13.238;2023-02-11T14:15:20;102347.56;;;6.84;100.00
32330;BME280;18807;52.434;13.238;2023-02-11T14:22:55;102347.91;;;6.90;100.00
32330;BME280;18807;52.434;13.238;2023-02-11T14:30:36;102361.25;;;6.91;100.00
32330;BME280;18807;52.434;13.238;2023-02-11T14:38:22;102355.59;;;6.85;100.00
32330;BME280;18807;52.434;13.238;2023-02-11T14:45:59;102361.97;;;6.89;100.00
32330;BME280;18807;52.434;13.238;2023-02-11T14:53:36;102358.19;;;6.84;100.00
32330;BME280;18807;52.434;13.238;2023-02-11T15:01:27;102355.78;;;6.88;100.00
32330;BME280;18807;52.434;13.238;2023-02-11T15:09:11;102382.97;;;6.84;100.00
32330;BME280;18807;52.434;13.238;2023-02-11T15:16:46;102396.06;;;6.81;100.00
32330;BME280;18807;52.434;13.238;2023-02-11T15:24:25;102407.78;;;6.85;100.00
32330;BME280;18807;52.434;13.238;2023-02-11T15:32:04;102402.50;;;6.85;100.00
32330;BME280;18807;52.434;13.238;2023-02-11T15:39:40;102392.63;;;6.82;100.00
32330;BME280;18807;52.434;13.238;2023-02-11T15:47:19;102414.13;;;6.87;100.00
32330;BME280;18807;52.434;13.238;2023-02-11T15:54:57;102419.09;;;6.81;100.00
32330;BME280;18807;52.434;13.238;2023-02-11T16:02:34;102413.94;;;6.84;100.00
32330;BME280;18807;52.434;13.238;2023-02-11T16:10:23;102417.41;;;6.83;100.00
32330;BME280;18807;52.434;13.238;2023-02-11T16:17:58;102422.00;;;6.85;100.00
32330;BME280;18807;52.434;13.238;2023-02-11T16:25:34;102455.59;;;6.85;100.00
32330;BME280;18807;52.434;13.238;2023-02-11T16:33:10;102450.56;;;6.89;100.00
32330;BME280;18807;52.434;13.238;2023-02-11T16:40:45;102439.44;;;6.96;100.00
32330;BME280;18807;52.434;13.238;2023-02-11T16:48:21;102440.94;;;6.91;100.00
32330;BME280;18807;52.434;13.238;2023-02-11T16:55:57;102449.00;;;6.93;100.00
32330;BME280;18807;52.434;13.238;2023-02-11T17:03:32;102478.44;;;6.97;100.00
32330;BME280;18807;52.434;13.238;2023-02-11T17:11:10;102485.59;;;6.98;100.00
32330;BME280;18807;52.434;13.238;2023-02-11T17:18:48;102483.03;;;7.00;100.00
32330;BME280;18807;52.434;13.238;2023-02-11T17:26:23;102499.25;;;7.04;100.00
32330;BME280;18807;52.434;13.238;2023-02-11T17:33:57;102503.28;;;6.98;100.00
32330;BME280;18807;52.434;13.238;2023-02-11T17:41:33;102523.25;;;7.06;100.00
32330;BME280;18807;52.434;13.238;2023-02-11T17:49:09;102532.09;;;7.06;100.00
32330;BME280;18807;52.434;13.238;2023-02-11T17:56:46;102539.19;;;7.06;100.00
32330;BME280;18807;52.434;13.238;2023-02-11T18:04:22;102548.78;;;7.04;100.00
32330;BME280;18807;52.434;13.238;2023-02-11T18:11:57;102566.66;;;7.06;100.00
32330;BME280;18807;52.434;13.238;2023-02-11T18:19:31;102570.03;;;7.04;100.00
32330;BME280;18807;52.434;13.238;2023-02-11T18:27:09;102579.94;;;7.06;100.00
32330;BME280;18807;52.434;13.238;2023-02-11T18:34:43;102581.03;;;7.10;100.00
32330;BME280;18807;52.434;13.238;2023-02-11T18:42:19;102594.81;;;7.03;100.00
32330;BME280;18807;52.434;13.238;2023-02-11T18:49:53;102616.06;;;7.03;100.00
32330;BME280;18807;52.434;13.238;2023-02-11T18:57:29;102627.47;;;7.02;100.00
32330;BME280;18807;52.434;13.238;2023-02-11T19:05:03;102630.31;;;7.05;100.00
32330;BME280;18807;52.434;13.238;2023-02-11T19:12:39;102650.69;;;7.04;100.00
32330;BME280;18807;52.434;13.238;2023-02-11T19:20:13;102653.34;;;7.04;100.00
32330;BME280;18807;52.434;13.238;2023-02-11T19:27:48;102654.22;;;7.05;100.00
32330;BME280;18807;52.434;13.238;2023-02-11T19:35:24;102673.66;;;7.04;100.00
32330;BME280;18807;52.434;13.238;2023-02-11T19:43:00;102676.41;;;7.05;100.00
32330;BME280;18807;52.434;13.238;2023-02-11T19:50:34;102658.38;;;7.00;100.00
32330;BME280;18807;52.434;13.238;2023-02-11T19:58:09;102668.81;;;6.97;100.00
32330;BME280;18807;52.434;13.238;2023-02-11T20:05:43;102678.34;;;6.93;100.00
32330;BME280;18807;52.434;13.238;2023-02-11T20:13:20;102691.34;;;6.89;100.00
32330;BME280;18807;52.434;13.238;2023-02-11T20:20:54;102709.66;;;6.84;100.00
32330;BME280;18807;52.434;13.238;2023-02-11T20:28:30;102714.59;;;6.78;100.00
32330;BME280;18807;52.434;13.238;2023-02-11T20:36:06;102712.66;;;6.76;100.00
32330;BME280;18807;52.434;13.238;2023-02-11T20:43:44;102726.59;;;6.72;100.00
32330;BME280;18807;52.434;13.238;2023-02-11T20:51:20;102736.56;;;6.76;100.00
32330;BME280;18807;52.434;13.238;2023-02-11T20:58:57;102739.13;;;6.74;100.00
32330;BME280;18807;52.434;13.238;2023-02-11T21:06:33;102749.56;;;6.71;100.00
32330;BME280;18807;52.434;13.238;2023-02-11T21:14:11;102761.03;;;6.70;100.00
32330;BME280;18807;52.434;13.238;2023-02-11T21:21:45;102767.66;;;6.64;100.00
32330;BME280;18807;52.434;13.238;2023-02-11T21:29:20;102783.13;;;6.56;100.00
32330;BME280;18807;52.434;13.238;2023-02-11T21:36:54;102783.66;;;6.51;100.00
32330;BME280;18807;52.434;13.238;2023-02-11T21:44:29;102803.06;;;6.50;100.00
32330;BME280;18807;52.434;13.238;2023-02-11T21:52:04;102809.19;;;6.49;100.00
32330;BME280;18807;52.434;13.238;2023-02-11T21:59:39;102803.47;;;6.43;100.00
32330;BME280;18807;52.434;13.238;2023-02-11T22:07:13;102834.44;;;6.42;100.00
32330;BME280;18807;52.434;13.238;2023-02-11T22:14:49;102843.81;;;6.37;100.00
32330;BME280;18807;52.434;13.238;2023-02-11T22:22:22;102849.13;;;6.37;100.00
32330;BME280;18807;52.434;13.238;2023-02-11T22:29:58;102848.00;;;6.34;100.00
32330;BME280;18807;52.434;13.238;2023-02-11T22:37:32;102864.66;;;6.31;100.00
32330;BME280;18807;52.434;13.238;2023-02-11T22:45:08;102885.88;;;6.31;100.00
32330;BME280;18807;52.434;13.238;2023-02-11T22:52:42;102888.13;;;6.25;100.00
32330;BME280;18807;52.434;13.238;2023-02-11T23:00:19;102900.41;;;6.23;100.00
32330;BME280;18807;52.434;13.238;2023-02-11T23:07:54;102919.66;;;6.21;100.00
32330;BME280;18807;52.434;13.238;2023-02-11T23:15:29;102911.41;;;6.16;100.00
32330;BME280;18807;52.434;13.238;2023-02-11T23:23:04;102915.91;;;6.17;100.00
32330;BME280;18807;52.434;13.238;2023-02-11T23:30:39;102930.69;;;6.13;100.00
32330;BME280;18807;52.434;13.238;2023-02-11T23:38:13;102930.50;;;6.10;100.00
32330;BME280;18807;52.434;13.238;2023-02-11T23:45:49;102931.53;;;6.13;100.00
32330;BME280;18807;52.434;13.238;2023-02-11T23:53:24;102944.78;;;6.13;100.00
